createdAt,value
2019-01-16T16:11:28.464Z,5.15
2019-01-16T16:14:13.393Z,5.83
2019-01-16T16:17:01.519Z,5.25
2019-01-16T16:19:49.355Z,4.62
2019-01-16T16:22:27.141Z,5.30
2019-01-16T16:25:07.235Z,6.45
2019-01-16T16:27:50.834Z,5.97
2019-01-16T16:30:33.817Z,5.70
2019-01-16T16:33:21.657Z,5.58
2019-01-16T16:35:56.144Z,4.70
2019-01-16T16:38:30.686Z,5.92
2019-01-16T16:41:08.566Z,5.62
2019-01-16T16:43:40.409Z,5.58
2019-01-16T16:46:21.159Z,5.50
2019-01-16T16:49:04.594Z,5.30
2019-01-16T16:51:51.288Z,5.75
2019-01-16T16:54:35.192Z,5.70
2019-01-16T16:57:15.947Z,5.53
2019-01-16T17:00:03.555Z,6.12
2019-01-16T17:02:50.068Z,5.80
2019-01-16T17:05:33.742Z,6.53
2019-01-16T17:08:17.355Z,6.50
2019-01-16T17:10:57.753Z,5.95
2019-01-16T17:13:32.189Z,6.47
2019-01-16T17:16:03.762Z,5.92
2019-01-16T17:18:39.470Z,6.20
2019-01-16T17:21:11.805Z,5.67
2019-01-16T17:24:01.674Z,6.00
2019-01-16T17:26:42.171Z,5.75
2019-01-16T17:29:19.681Z,5.85
2019-01-16T17:31:54.251Z,6.15
2019-01-16T17:34:41.903Z,5.83
2019-01-16T17:37:22.404Z,6.83
2019-01-16T17:39:59.900Z,6.58
2019-01-16T17:42:47.309Z,6.08
2019-01-16T17:45:25.061Z,5.97
2019-01-16T17:48:13.089Z,6.28
2019-01-16T17:51:00.938Z,6.30
2019-01-16T17:53:35.564Z,6.17
2019-01-16T17:56:07.088Z,6.33
2019-01-16T17:58:38.681Z,6.20
2019-01-16T18:01:29.771Z,6.45
2019-01-16T18:04:07.164Z,6.15
2019-01-16T18:06:53.864Z,5.60
2019-01-16T18:09:28.369Z,5.65
2019-01-16T18:12:18.256Z,5.67
2019-01-16T18:14:55.855Z,5.42
2019-01-16T18:17:27.387Z,5.40
2019-01-16T18:20:02.133Z,6.03
2019-01-16T18:22:48.633Z,5.72
2019-01-16T18:25:36.669Z,6.78
2019-01-16T18:28:20.086Z,5.80
2019-01-16T18:30:54.580Z,6.37
2019-01-16T18:33:31.964Z,6.40
2019-01-16T18:36:21.925Z,6.75
2019-01-16T18:38:59.270Z,8.30
2019-01-16T18:41:39.811Z,6.95
2019-01-16T18:44:11.639Z,5.78
2019-01-16T18:46:55.514Z,6.62
2019-01-16T18:49:36.045Z,7.03
2019-01-16T18:52:07.642Z,5.72
2019-01-16T18:54:47.974Z,5.03
2019-01-16T18:57:28.161Z,7.33
2019-01-16T18:59:59.709Z,6.45
2019-01-16T19:02:43.481Z,6.15
2019-01-16T19:05:15.354Z,6.53
2019-01-16T19:08:01.622Z,7.30
2019-01-16T19:10:33.162Z,5.12
2019-01-16T19:13:21.462Z,5.33
2019-01-16T19:15:52.991Z,6.15
2019-01-16T19:18:24.866Z,5.40
2019-01-16T19:21:12.898Z,3.20
2019-01-16T19:23:50.903Z,6.72
2019-01-16T19:26:38.948Z,6.22
2019-01-16T19:29:25.754Z,6.08
2019-01-16T19:32:02.783Z,7.12
2019-01-16T19:34:34.372Z,6.40
2019-01-16T19:37:21.404Z,5.70
2019-01-16T19:40:09.207Z,6.95
2019-01-16T19:42:53.104Z,6.97
2019-01-16T19:45:33.942Z,6.58
2019-01-16T19:48:21.621Z,6.90
2019-01-16T19:50:53.442Z,6.80
2019-01-16T19:53:28.157Z,7.17
2019-01-16T19:56:02.786Z,6.78
2019-01-16T19:58:34.667Z,6.10
2019-01-16T20:01:22.597Z,6.12
2019-01-16T20:03:54.403Z,6.72
2019-01-16T20:06:28.770Z,7.05
2019-01-16T20:09:09.546Z,7.05
2019-01-16T20:11:41.089Z,6.90
2019-01-16T20:14:32.051Z,6.55
2019-01-16T20:17:14.462Z,6.90
2019-01-16T20:19:51.821Z,7.83
2019-01-16T20:22:26.098Z,6.72
2019-01-16T20:25:00.740Z,6.87
2019-01-16T20:27:50.506Z,7.75
2019-01-16T20:30:22.036Z,7.15
2019-01-16T20:33:10.008Z,7.15
2019-01-16T20:35:50.203Z,7.50
2019-01-16T20:38:30.875Z,5.80
2019-01-16T20:41:04.339Z,8.23
2019-01-16T20:43:38.318Z,7.83
2019-01-16T20:46:10.204Z,7.10
2019-01-16T20:48:41.759Z,7.05
2019-01-16T20:51:13.635Z,7.70
2019-01-16T20:53:45.190Z,13.30
2019-01-16T20:56:17.023Z,12.15
2019-01-16T20:58:57.679Z,9.00
2019-01-16T21:01:29.229Z,8.93
2019-01-16T21:04:00.757Z,8.05
2019-01-16T21:06:50.889Z,8.53
2019-01-16T21:09:25.135Z,12.00
2019-01-16T21:12:02.994Z,10.45
2019-01-16T21:14:37.736Z,11.25
2019-01-16T21:17:12.280Z,9.48
2019-01-16T21:19:55.727Z,9.35
2019-01-16T21:22:43.789Z,8.58
2019-01-16T21:25:34.012Z,9.25
2019-01-16T21:28:11.570Z,9.05
2019-01-16T21:30:46.069Z,9.10
2019-01-16T21:33:34.373Z,9.38
2019-01-16T21:36:14.617Z,7.70
2019-01-16T21:38:51.880Z,9.83
2019-01-16T21:41:23.678Z,8.25
2019-01-16T21:44:01.313Z,11.35
2019-01-16T21:46:38.554Z,10.63
2019-01-16T21:49:12.550Z,10.32
2019-01-16T21:51:44.431Z,7.65
2019-01-16T21:54:15.973Z,7.80
2019-01-16T21:56:59.524Z,11.08
2019-01-16T21:59:31.372Z,7.35
2019-01-16T22:02:02.922Z,8.28
2019-01-16T22:04:34.798Z,8.83
2019-01-16T22:07:09.101Z,8.35
2019-01-16T22:09:41.552Z,13.68
2019-01-16T22:12:13.100Z,8.13
2019-01-16T22:14:45.006Z,10.20
2019-01-16T22:17:32.743Z,9.95
2019-01-16T22:20:04.277Z,9.23
2019-01-16T22:22:44.849Z,7.65
2019-01-16T22:25:33.087Z,9.73
2019-01-16T22:28:21.262Z,8.70
2019-01-16T22:30:58.814Z,9.13
2019-01-16T22:33:36.757Z,9.28
2019-01-16T22:36:19.810Z,10.28
2019-01-16T22:38:51.628Z,10.00
2019-01-16T22:41:39.978Z,12.78
2019-01-16T22:44:20.167Z,9.53
2019-01-16T22:46:54.587Z,8.00
2019-01-16T22:49:38.062Z,8.83
2019-01-16T22:52:09.635Z,8.75
2019-01-16T22:54:43.965Z,8.70
2019-01-16T22:57:25.013Z,9.93
2019-01-16T23:00:02.317Z,8.45
2019-01-16T23:02:46.131Z,8.40
2019-01-16T23:05:23.770Z,8.53
2019-01-16T23:08:01.552Z,8.15
2019-01-16T23:10:33.128Z,9.70
2019-01-16T23:13:07.605Z,11.10
2019-01-16T23:15:39.276Z,8.98
2019-01-16T23:18:10.828Z,9.13
2019-01-16T23:20:42.363Z,8.80
2019-01-16T23:23:13.946Z,8.10
2019-01-16T23:25:53.924Z,8.80
2019-01-16T23:28:25.509Z,9.08
2019-01-16T23:31:13.467Z,9.73
2019-01-16T23:34:01.152Z,9.58
2019-01-16T23:36:32.950Z,7.62
2019-01-16T23:39:10.041Z,8.98
2019-01-16T23:41:41.568Z,8.55
2019-01-16T23:44:13.106Z,7.33
2019-01-16T23:46:53.293Z,8.98
2019-01-16T23:49:27.564Z,9.33
2019-01-16T23:52:07.941Z,6.10
2019-01-16T23:54:39.839Z,8.78
2019-01-16T23:57:11.393Z,6.40
2019-01-16T23:59:59.088Z,8.20
